createdAt,value
2019-04-11T00:00:55.474Z,99901.00
2019-04-11T00:03:29.351Z,99900.00
2019-04-11T00:05:59.984Z,99911.00
2019-04-11T00:08:30.520Z,99900.00
2019-04-11T00:11:03.791Z,99911.00
2019-04-11T00:13:36.335Z,99905.00
2019-04-11T00:16:07.330Z,99903.00
2019-04-11T00:18:38.783Z,99904.00
2019-04-11T00:21:10.524Z,99910.00
2019-04-11T00:23:42.417Z,99910.00
2019-04-11T00:26:13.874Z,99908.00
2019-04-11T00:28:44.524Z,99918.00
2019-04-11T00:31:15.082Z,99923.00
2019-04-11T00:33:46.637Z,99918.00
2019-04-11T00:36:17.384Z,99907.00
2019-04-11T00:38:49.934Z,99909.00
2019-04-11T00:41:21.730Z,99911.00
2019-04-11T00:43:52.568Z,99910.00
2019-04-11T00:46:24.474Z,99924.00
2019-04-11T00:48:55.237Z,99911.00
2019-04-11T00:51:25.873Z,99921.00
2019-04-11T00:53:56.415Z,99919.00
2019-04-11T00:56:26.975Z,99919.00
2019-04-11T00:58:58.306Z,99911.00
2019-04-11T01:01:31.509Z,99921.00
2019-04-11T01:04:03.296Z,99918.00
2019-04-11T01:06:35.066Z,99918.00
2019-04-11T01:09:08.292Z,99928.00
2019-04-11T01:11:40.379Z,99925.00
2019-04-11T01:14:11.074Z,99926.00
2019-04-11T01:16:54.485Z,99936.00
2019-04-11T01:19:26.857Z,99923.00
2019-04-11T01:21:59.528Z,99932.00
2019-04-11T01:24:31.429Z,99928.00
2019-04-11T01:27:02.529Z,99935.00
2019-04-11T01:29:33.564Z,99934.00
2019-04-11T01:32:06.934Z,99939.00
2019-04-11T01:34:37.484Z,99938.00
2019-04-11T01:37:09.356Z,99934.00
2019-04-11T01:39:51.639Z,99930.00
2019-04-11T01:42:24.924Z,99932.00
2019-04-11T01:44:57.114Z,99932.00
2019-04-11T01:47:53.233Z,99937.00
2019-04-11T01:50:27.264Z,99933.00
2019-04-11T01:52:58.436Z,99941.00
2019-04-11T01:55:30.429Z,99932.00
2019-04-11T01:58:00.996Z,99936.00
2019-04-11T02:00:54.723Z,99950.00
2019-04-11T02:03:39.313Z,99944.00
2019-04-11T02:06:11.900Z,99942.00
2019-04-11T02:08:42.448Z,99950.00
2019-04-11T02:11:13.094Z,99950.00
2019-04-11T02:13:44.890Z,99947.00
2019-04-11T02:16:17.195Z,99949.00
2019-04-11T02:18:47.801Z,99956.00
2019-04-11T02:21:19.966Z,99959.00
2019-04-11T02:24:11.867Z,99956.00
2019-04-11T02:26:46.572Z,99961.00
2019-04-11T02:29:17.321Z,99968.00
2019-04-11T02:31:48.020Z,99963.00
2019-04-11T02:34:19.339Z,99968.00
2019-04-11T02:36:51.323Z,99968.00
2019-04-11T02:39:22.877Z,99968.00
2019-04-11T02:41:55.007Z,99974.00
2019-04-11T02:44:36.564Z,99968.00
2019-04-11T02:47:05.975Z,99971.00
2019-04-11T02:49:32.922Z,99969.00
2019-04-11T02:52:03.714Z,99972.00
2019-04-11T02:54:34.480Z,99972.00
2019-04-11T02:57:07.938Z,99972.00
2019-04-11T02:59:40.870Z,99975.00
2019-04-11T03:02:16.488Z,99972.00
2019-04-11T03:04:46.020Z,99968.00
2019-04-11T03:07:17.409Z,99975.00
2019-04-11T03:09:48.834Z,99979.00
2019-04-11T03:12:21.405Z,99983.00
2019-04-11T03:15:12.957Z,99983.00
2019-04-11T03:17:34.106Z,99981.00
2019-04-11T03:20:13.030Z,99992.00
2019-04-11T03:22:34.954Z,99981.00
2019-04-11T03:25:07.928Z,99994.00
2019-04-11T03:27:40.899Z,99990.00
2019-04-11T03:30:19.664Z,99997.00
2019-04-11T03:33:57.197Z,99999.00
2019-04-11T03:36:07.946Z,100002.00
2019-04-11T03:38:15.279Z,100002.00
2019-04-11T03:40:47.057Z,100003.00
2019-04-11T03:43:11.763Z,100000.00
2019-04-11T03:45:52.734Z,100007.00
2019-04-11T03:48:21.813Z,99994.00
2019-04-11T03:50:40.357Z,100006.00
2019-04-11T03:53:12.314Z,100001.00
2019-04-11T03:55:43.343Z,99997.00
2019-04-11T03:58:15.490Z,100001.00
2019-04-11T04:00:50.369Z,100001.00
2019-04-11T04:03:22.335Z,100006.00
2019-04-11T04:05:54.897Z,100006.00
2019-04-11T04:08:27.096Z,100012.00
2019-04-11T04:11:30.480Z,100008.00
2019-04-11T04:14:08.389Z,100019.00
2019-04-11T04:17:14.727Z,100018.00
2019-04-11T04:19:54.322Z,100021.00
2019-04-11T04:22:37.847Z,100011.00
2019-04-11T04:25:10.340Z,100020.00
2019-04-11T04:27:42.760Z,100025.00
2019-04-11T04:30:15.532Z,100031.00
2019-04-11T04:32:47.166Z,100029.00
2019-04-11T04:35:21.001Z,100037.00
2019-04-11T04:37:51.830Z,100043.00
2019-04-11T04:40:41.374Z,100041.00
2019-04-11T04:43:01.218Z,100047.00
2019-04-11T04:45:54.718Z,100040.00
2019-04-11T04:48:11.807Z,100051.00
2019-04-11T04:50:40.466Z,100054.00
2019-04-11T04:53:11.177Z,100052.00
2019-04-11T04:55:43.390Z,100062.00
2019-04-11T04:58:15.796Z,100060.00
2019-04-11T05:00:48.437Z,100070.00
2019-04-11T05:03:22.266Z,100064.00
2019-04-11T05:05:55.104Z,100067.00
2019-04-11T05:08:26.962Z,100065.00
2019-04-11T05:11:01.803Z,100081.00
2019-04-11T05:13:34.285Z,100080.00
2019-04-11T05:16:15.131Z,100079.00
2019-04-11T05:18:37.556Z,100084.00
2019-04-11T05:21:08.655Z,100093.00
2019-04-11T05:23:39.548Z,100085.00
2019-04-11T05:26:10.958Z,100085.00
2019-04-11T05:28:41.861Z,100096.00
2019-04-11T05:31:12.466Z,100099.00
2019-04-11T05:33:43.539Z,100102.00
2019-04-11T05:36:14.414Z,100094.00
2019-04-11T05:38:46.287Z,100094.00
2019-04-11T05:41:17.448Z,100091.00
2019-04-11T05:43:51.514Z,100098.00
2019-04-11T05:46:33.470Z,100105.00
2019-04-11T05:49:29.044Z,100108.00
2019-04-11T05:52:08.289Z,100114.00
2019-04-11T05:54:45.211Z,100107.00
2019-04-11T05:57:21.218Z,100115.00
2019-04-11T05:59:53.092Z,100107.00
2019-04-11T06:02:29.419Z,100117.00
2019-04-11T06:05:29.605Z,100115.00
2019-04-11T06:08:02.666Z,100119.00
2019-04-11T06:10:52.589Z,100117.00
2019-04-11T06:13:32.150Z,100125.00
2019-04-11T06:16:04.668Z,100122.00
2019-04-11T06:18:54.120Z,100114.00
2019-04-11T06:21:35.883Z,100120.00
2019-04-11T06:24:18.214Z,100122.00
2019-04-11T06:27:06.403Z,100119.00
2019-04-11T06:29:45.531Z,100127.00
2019-04-11T06:32:34.665Z,100128.00
2019-04-11T06:35:11.590Z,100139.00
2019-04-11T06:38:20.893Z,100124.00
2019-04-11T06:40:59.939Z,100132.00
2019-04-11T06:43:36.654Z,100136.00
2019-04-11T06:46:27.231Z,100133.00
2019-04-11T06:49:18.593Z,100128.00
2019-04-11T06:51:56.748Z,100144.00
2019-04-11T06:54:45.414Z,100146.00
2019-04-11T06:57:19.597Z,100137.00
2019-04-11T06:59:50.414Z,100135.00
2019-04-11T07:02:23.311Z,100136.00
2019-04-11T07:05:02.492Z,100142.00
2019-04-11T07:07:35.668Z,100144.00
2019-04-11T07:10:09.511Z,100141.00
2019-04-11T07:12:47.122Z,100148.00
2019-04-11T07:15:29.410Z,100151.00
2019-04-11T07:18:18.285Z,100142.00
2019-04-11T07:20:52.317Z,100148.00
2019-04-11T07:23:42.317Z,100153.00
2019-04-11T07:26:35.128Z,100148.00
2019-04-11T07:29:27.898Z,100157.00
2019-04-11T07:32:23.302Z,100166.00
2019-04-11T07:35:13.287Z,100161.00
2019-04-11T07:37:49.342Z,100157.00
2019-04-11T07:40:39.388Z,100160.00
2019-04-11T07:43:14.986Z,100163.00
2019-04-11T07:46:14.852Z,100176.00
2019-04-11T07:48:46.781Z,100165.00
2019-04-11T07:51:25.672Z,100169.00
2019-04-11T07:54:00.285Z,100167.00
2019-04-11T07:56:38.877Z,100176.00
2019-04-11T07:59:17.605Z,100175.00
2019-04-11T08:02:10.387Z,100169.00
2019-04-11T08:05:02.990Z,100174.00
2019-04-11T08:07:46.878Z,100185.00
2019-04-11T08:10:22.874Z,100189.00
2019-04-11T08:12:54.080Z,100191.00
2019-04-11T08:15:43.893Z,100169.00
2019-04-11T08:18:36.908Z,100177.00
2019-04-11T08:21:26.215Z,100186.00
2019-04-11T08:23:58.882Z,100182.00
2019-04-11T08:26:50.519Z,100187.00
2019-04-11T08:29:22.196Z,100191.00
2019-04-11T08:32:11.826Z,100191.00
2019-04-11T08:34:49.972Z,100186.00
2019-04-11T08:37:43.376Z,100201.00
2019-04-11T08:40:14.433Z,100196.00
2019-04-11T08:43:02.721Z,100191.00
2019-04-11T08:45:33.981Z,100189.00
2019-04-11T08:48:07.079Z,100192.00
2019-04-11T08:50:40.830Z,100193.00
2019-04-11T08:53:29.059Z,100179.00
2019-04-11T08:56:02.640Z,100221.00
2019-04-11T08:58:58.492Z,100202.00
2019-04-11T09:01:29.815Z,100197.00
2019-04-11T09:04:19.735Z,100202.00
2019-04-11T09:06:50.410Z,100191.00
2019-04-11T09:09:47.397Z,100194.00
2019-04-11T09:12:26.768Z,100196.00
2019-04-11T09:15:26.627Z,100205.00
2019-04-11T09:18:04.631Z,100202.00
2019-04-11T09:20:54.609Z,100216.00
2019-04-11T09:23:26.332Z,100209.00
2019-04-11T09:26:32.005Z,100222.00
2019-04-11T09:29:04.075Z,100215.00
2019-04-11T09:31:56.284Z,100204.00
2019-04-11T09:34:54.772Z,100219.00
2019-04-11T09:37:30.806Z,100214.00
2019-04-11T09:40:23.957Z,100212.00
2019-04-11T09:43:12.558Z,100214.00
2019-04-11T09:46:08.324Z,100206.00
2019-04-11T09:48:56.657Z,100201.00
2019-04-11T09:51:51.983Z,100199.00
2019-04-11T09:54:40.195Z,100207.00
2019-04-11T09:57:32.847Z,100191.00
2019-04-11T10:00:20.712Z,100207.00
2019-04-11T10:02:56.416Z,100201.00
2019-04-11T10:05:32.014Z,100197.00
2019-04-11T10:08:17.191Z,100197.00
2019-04-11T10:11:10.195Z,100219.00
2019-04-11T10:14:11.915Z,100211.00
2019-04-11T10:17:02.286Z,100195.00
2019-04-11T10:20:02.758Z,100197.00
2019-04-11T10:22:52.413Z,100207.00
2019-04-11T10:25:45.517Z,100201.00
2019-04-11T10:28:42.184Z,100199.00
2019-04-11T10:31:18.168Z,100201.00
2019-04-11T10:34:13.870Z,100207.00
2019-04-11T10:36:51.636Z,100211.00
2019-04-11T10:40:00.083Z,100209.00
2019-04-11T10:42:31.317Z,100194.00
2019-04-11T10:45:25.252Z,100192.00
2019-04-11T10:47:58.209Z,100202.00
2019-04-11T10:50:56.769Z,100199.00
2019-04-11T10:53:27.937Z,100199.00
2019-04-11T10:56:16.420Z,100207.00
2019-04-11T10:58:49.310Z,100208.00
2019-04-11T11:01:37.682Z,100199.00
2019-04-11T11:04:17.881Z,100196.00
2019-04-11T11:06:52.129Z,100187.00
2019-04-11T11:09:42.077Z,100200.00
2019-04-11T11:12:32.972Z,100190.00
2019-04-11T11:15:31.713Z,100202.00
2019-04-11T11:18:41.095Z,100191.00
2019-04-11T11:20:57.095Z,100200.00
2019-04-11T11:23:45.004Z,100210.00
2019-04-11T11:26:22.864Z,100204.00
2019-04-11T11:29:08.276Z,100191.00
2019-04-11T11:31:40.781Z,100207.00
2019-04-11T11:34:19.260Z,100212.00
2019-04-11T11:37:07.053Z,100199.00
2019-04-11T11:39:49.100Z,100205.00
2019-04-11T11:42:46.733Z,100199.00
2019-04-11T11:45:25.629Z,100218.00
2019-04-11T11:48:13.658Z,100231.00
2019-04-11T11:50:40.610Z,100219.00
2019-04-11T11:53:38.602Z,100226.00
2019-04-11T11:56:09.567Z,100218.00
2019-04-11T11:59:09.128Z,100216.00
2019-04-11T12:01:49.279Z,100218.00
2019-04-11T12:04:46.393Z,100225.00
2019-04-11T12:07:19.040Z,100234.00
2019-04-11T12:10:07.433Z,100227.00
2019-04-11T12:12:56.008Z,100236.00
2019-04-11T12:15:49.021Z,100229.00
2019-04-11T12:18:48.625Z,100235.00
2019-04-11T12:21:23.787Z,100240.00
2019-04-11T12:24:20.391Z,100237.00
2019-04-11T12:27:00.707Z,100223.00
2019-04-11T12:29:51.892Z,100247.00
2019-04-11T12:32:25.724Z,100243.00
2019-04-11T12:35:25.750Z,100256.00
2019-04-11T12:38:01.375Z,100239.00
2019-04-11T12:40:49.932Z,100232.00
2019-04-11T12:43:20.588Z,100244.00
2019-04-11T12:46:09.003Z,100231.00
2019-04-11T12:48:43.169Z,100230.00
2019-04-11T12:51:22.004Z,100229.00
2019-04-11T12:53:54.425Z,100231.00
2019-04-11T12:56:43.972Z,100229.00
2019-04-11T12:59:18.343Z,100234.00
2019-04-11T13:02:06.806Z,100226.00
2019-04-11T13:04:39.369Z,100220.00
2019-04-11T13:07:34.348Z,100232.00
2019-04-11T13:10:18.478Z,100218.00
2019-04-11T13:13:20.041Z,100228.00
2019-04-11T13:15:55.291Z,100225.00
2019-04-11T13:18:43.245Z,100240.00
2019-04-11T13:21:20.578Z,100235.00
2019-04-11T13:24:11.241Z,100231.00
2019-04-11T13:26:59.867Z,100234.00
2019-04-11T13:30:04.757Z,100242.00
2019-04-11T13:33:08.569Z,100234.00
2019-04-11T13:36:04.058Z,100237.00
2019-04-11T13:38:43.397Z,100241.00
2019-04-11T13:41:38.781Z,100235.00
2019-04-11T13:44:15.354Z,100236.00
2019-04-11T13:47:11.309Z,100238.00
2019-04-11T13:50:00.878Z,100233.00
2019-04-11T13:52:51.340Z,100237.00
2019-04-11T13:55:33.234Z,100233.00
2019-04-11T13:58:21.748Z,100235.00
2019-04-11T14:00:56.607Z,100246.00
2019-04-11T14:03:49.771Z,100236.00
2019-04-11T14:06:32.154Z,100228.00
2019-04-11T14:09:21.918Z,100226.00
2019-04-11T14:12:04.840Z,100227.00
2019-04-11T14:14:42.087Z,100232.00
2019-04-11T14:17:22.061Z,100227.00
2019-04-11T14:20:11.566Z,100232.00
2019-04-11T14:22:58.509Z,100228.00
2019-04-11T14:25:44.404Z,100229.00
2019-04-11T14:28:14.996Z,100234.00
2019-04-11T14:30:57.068Z,100230.00
2019-04-11T14:33:29.737Z,100232.00
2019-04-11T14:36:18.359Z,100226.00
2019-04-11T14:38:52.086Z,100227.00
2019-04-11T14:41:41.526Z,100224.00
2019-04-11T14:44:11.587Z,100224.00
2019-04-11T14:46:59.979Z,100230.00
2019-04-11T14:49:30.601Z,100228.00
2019-04-11T14:52:27.628Z,100229.00
2019-04-11T14:55:01.022Z,100234.00
2019-04-11T14:57:56.767Z,100225.00
2019-04-11T15:00:30.780Z,100236.00
2019-04-11T15:03:35.640Z,100230.00
2019-04-11T15:06:31.317Z,100234.00
2019-04-11T15:09:30.621Z,100234.00
2019-04-11T15:12:20.076Z,100231.00
2019-04-11T15:15:15.455Z,100246.00
2019-04-11T15:17:46.711Z,100229.00
2019-04-11T15:20:41.304Z,100238.00
2019-04-11T15:23:20.220Z,100225.00
2019-04-11T15:26:09.955Z,100232.00
2019-04-11T15:28:59.789Z,100230.00
2019-04-11T15:31:39.567Z,100241.00
2019-04-11T15:34:44.689Z,100255.00
2019-04-11T15:37:33.085Z,100253.00
2019-04-11T15:40:07.752Z,100237.00
2019-04-11T15:42:57.225Z,100232.00
2019-04-11T15:45:38.766Z,100229.00
2019-04-11T15:48:46.844Z,100236.00
2019-04-11T15:51:31.582Z,100239.00
2019-04-11T15:54:27.177Z,100233.00
2019-04-11T15:57:26.966Z,100242.00
2019-04-11T16:00:28.882Z,100239.00
2019-04-11T16:03:24.647Z,100248.00
2019-04-11T16:06:12.677Z,100243.00
2019-04-11T16:08:46.530Z,100248.00
2019-04-11T16:11:51.621Z,100246.00
2019-04-11T16:14:27.556Z,100254.00
2019-04-11T16:17:35.475Z,100245.00
2019-04-11T16:20:13.301Z,100249.00
2019-04-11T16:23:02.802Z,100250.00
2019-04-11T16:25:33.506Z,100251.00
2019-04-11T16:28:21.977Z,100254.00
2019-04-11T16:30:59.849Z,100247.00
2019-04-11T16:33:48.120Z,100253.00
2019-04-11T16:36:37.736Z,100260.00
2019-04-11T16:39:49.963Z,100253.00
2019-04-11T16:42:38.555Z,100254.00
2019-04-11T16:45:35.107Z,100257.00
2019-04-11T16:48:05.706Z,100257.00
2019-04-11T16:50:37.423Z,100258.00
2019-04-11T16:53:11.543Z,100262.00
2019-04-11T16:55:43.183Z,100260.00
2019-04-11T16:58:16.996Z,100266.00
2019-04-11T17:00:46.260Z,100265.00
2019-04-11T17:03:17.371Z,100261.00
2019-04-11T17:06:02.954Z,100265.00
2019-04-11T17:08:41.491Z,100259.00
2019-04-11T17:11:18.774Z,100262.00
2019-04-11T17:13:48.988Z,100266.00
2019-04-11T17:16:20.787Z,100271.00
2019-04-11T17:18:53.299Z,100264.00
2019-04-11T17:21:23.852Z,100278.00
2019-04-11T17:23:54.530Z,100264.00
2019-04-11T17:26:25.136Z,100277.00
2019-04-11T17:28:57.331Z,100271.00
2019-04-11T17:31:28.321Z,100277.00
2019-04-11T17:34:01.590Z,100276.00
2019-04-11T17:36:33.525Z,100277.00
2019-04-11T17:39:07.565Z,100279.00
2019-04-11T17:41:41.750Z,100277.00
2019-04-11T17:44:10.730Z,100286.00
2019-04-11T17:46:41.347Z,100288.00
2019-04-11T17:49:32.474Z,100291.00
2019-04-11T17:52:05.188Z,100298.00
2019-04-11T17:54:35.553Z,100293.00
2019-04-11T17:57:06.237Z,100294.00
2019-04-11T17:59:38.639Z,100299.00
2019-04-11T18:02:11.144Z,100309.00
2019-04-11T18:04:45.759Z,100309.00
2019-04-11T18:07:16.997Z,100310.00
2019-04-11T18:09:48.178Z,100319.00
2019-04-11T18:12:18.767Z,100318.00
2019-04-11T18:14:49.513Z,100316.00
2019-04-11T18:17:20.150Z,100319.00
2019-04-11T18:19:50.795Z,100320.00
2019-04-11T18:22:21.705Z,100317.00
2019-04-11T18:24:52.429Z,100326.00
2019-04-11T18:27:23.166Z,100339.00
2019-04-11T18:29:54.057Z,100335.00
2019-04-11T18:32:25.136Z,100341.00
2019-04-11T18:34:55.820Z,100340.00
2019-04-11T18:37:26.552Z,100343.00
2019-04-11T18:39:57.185Z,100346.00
2019-04-11T18:42:31.470Z,100343.00
2019-04-11T18:45:02.134Z,100351.00
2019-04-11T18:47:32.729Z,100350.00
2019-04-11T18:50:03.498Z,100349.00
2019-04-11T18:52:34.380Z,100360.00
2019-04-11T18:55:06.267Z,100349.00
2019-04-11T18:57:36.886Z,100358.00
2019-04-11T19:00:12.186Z,100364.00
2019-04-11T19:02:42.782Z,100366.00
2019-04-11T19:05:13.926Z,100361.00
2019-04-11T19:07:47.356Z,100362.00
2019-04-11T19:10:17.982Z,100365.00
2019-04-11T19:12:48.664Z,100358.00
2019-04-11T19:15:19.381Z,100366.00
2019-04-11T19:18:00.423Z,100364.00
2019-04-11T19:20:22.836Z,100355.00
2019-04-11T19:22:53.718Z,100360.00
2019-04-11T19:25:26.502Z,100364.00
2019-04-11T19:27:59.316Z,100361.00
2019-04-11T19:30:29.931Z,100365.00
2019-04-11T19:33:01.721Z,100365.00
2019-04-11T19:35:32.455Z,100362.00
2019-04-11T19:38:07.261Z,100374.00
2019-04-11T19:40:38.912Z,100367.00
2019-04-11T19:43:09.688Z,100365.00
2019-04-11T19:45:40.347Z,100352.00
2019-04-11T19:48:11.026Z,100358.00
2019-04-11T19:50:41.732Z,100355.00
2019-04-11T19:53:12.361Z,100354.00
2019-04-11T19:56:02.990Z,100353.00
2019-04-11T19:58:33.370Z,100358.00
2019-04-11T20:01:04.243Z,100356.00
2019-04-11T20:03:34.907Z,100358.00
2019-04-11T20:06:07.269Z,100354.00
2019-04-11T20:08:37.950Z,100360.00
2019-04-11T20:11:08.596Z,100357.00
2019-04-11T20:13:39.288Z,100357.00
2019-04-11T20:16:12.417Z,100361.00
2019-04-11T20:18:50.907Z,100357.00
2019-04-11T20:21:15.255Z,100360.00
2019-04-11T20:23:45.911Z,100363.00
2019-04-11T20:26:19.976Z,100362.00
2019-04-11T20:28:51.015Z,100352.00
2019-04-11T20:31:22.256Z,100367.00
2019-04-11T20:33:53.056Z,100364.00
2019-04-11T20:36:33.200Z,100361.00
2019-04-11T20:38:57.699Z,100352.00
2019-04-11T20:41:28.302Z,100354.00
2019-04-11T20:44:00.402Z,100356.00
2019-04-11T20:46:30.989Z,100355.00
2019-04-11T20:49:01.723Z,100358.00
2019-04-11T20:51:32.351Z,100363.00
2019-04-11T20:54:07.035Z,100366.00
2019-04-11T20:56:35.480Z,100363.00
2019-04-11T20:59:10.021Z,100365.00
2019-04-11T21:01:40.046Z,100365.00
2019-04-11T21:04:11.858Z,100363.00
2019-04-11T21:06:42.479Z,100362.00
2019-04-11T21:09:13.423Z,100362.00
2019-04-11T21:11:44.196Z,100362.00
2019-04-11T21:14:14.820Z,100363.00
2019-04-11T21:16:45.383Z,100353.00
2019-04-11T21:19:17.221Z,100357.00
2019-04-11T21:21:47.874Z,100366.00
2019-04-11T21:24:18.570Z,100369.00
2019-04-11T21:26:50.235Z,100354.00
2019-04-11T21:29:21.976Z,100364.00
2019-04-11T21:31:52.792Z,100356.00
2019-04-11T21:34:23.382Z,100370.00
2019-04-11T21:36:53.950Z,100372.00
2019-04-11T21:39:26.029Z,100366.00
2019-04-11T21:41:56.592Z,100371.00
2019-04-11T21:44:27.387Z,100369.00
2019-04-11T21:46:58.162Z,100373.00
2019-04-11T21:49:28.884Z,100364.00
2019-04-11T21:52:03.172Z,100374.00
2019-04-11T21:54:33.734Z,100365.00
2019-04-11T21:57:04.387Z,100368.00
2019-04-11T21:59:36.850Z,100365.00
2019-04-11T22:02:10.942Z,100365.00
2019-04-11T22:04:42.850Z,100362.00
2019-04-11T22:07:13.488Z,100357.00
2019-04-11T22:09:45.225Z,100352.00
2019-04-11T22:12:15.761Z,100358.00
2019-04-11T22:14:46.388Z,100362.00
2019-04-11T22:17:17.245Z,100363.00
2019-04-11T22:19:47.890Z,100362.00
2019-04-11T22:22:18.614Z,100367.00
2019-04-11T22:25:08.578Z,100386.00
2019-04-11T22:27:39.281Z,100363.00
2019-04-11T22:30:10.275Z,100358.00
2019-04-11T22:32:43.760Z,100368.00
2019-04-11T22:35:14.553Z,100361.00
2019-04-11T22:37:45.125Z,100367.00
2019-04-11T22:40:15.738Z,100370.00
2019-04-11T22:42:46.353Z,100365.00
2019-04-11T22:45:16.998Z,100364.00
2019-04-11T22:47:47.547Z,100368.00
2019-04-11T22:50:18.186Z,100361.00
2019-04-11T22:52:48.721Z,100367.00
2019-04-11T22:55:19.439Z,100370.00
2019-04-11T22:57:50.011Z,100371.00
2019-04-11T23:00:20.958Z,100367.00
2019-04-11T23:03:05.013Z,100364.00
2019-04-11T23:05:36.842Z,100375.00
2019-04-11T23:08:07.448Z,100372.00
2019-04-11T23:10:38.076Z,100367.00
2019-04-11T23:13:08.733Z,100368.00
2019-04-11T23:15:39.292Z,100369.00
2019-04-11T23:18:11.865Z,100375.00
2019-04-11T23:20:44.094Z,100363.00
2019-04-11T23:23:15.544Z,100379.00
2019-04-11T23:25:47.927Z,100365.00
2019-04-11T23:28:18.500Z,100369.00
2019-04-11T23:30:50.521Z,100357.00
2019-04-11T23:33:23.867Z,100361.00
2019-04-11T23:35:55.608Z,100366.00
2019-04-11T23:38:26.231Z,100361.00
2019-04-11T23:40:56.814Z,100365.00
2019-04-11T23:43:28.495Z,100364.00
2019-04-11T23:45:59.500Z,100354.00
2019-04-11T23:48:30.083Z,100367.00
2019-04-11T23:51:00.679Z,100369.00
2019-04-11T23:53:32.450Z,100356.00
2019-04-11T23:56:02.991Z,100365.00
2019-04-11T23:58:33.547Z,100365.00
